Groveland, Massachusetts
Current Conditions -  °F | °C
As of 2:54 AM on Sunday 26 Oct 2014 (Local Time) from KLWM Reporting Station
Clear Clear  
Wind Chill: 52°   Ceiling: Unl
Heat Index: 52°   Visibility: 10mi
Dew Point: 44°   Wind: 8mph
Humidity: 74%   Direction: 210°SSW
Pressure: 29.46"   Gusts: NA
Location:  42.76°N, 71.03°W
Report Text: KLWM 260654Z AUTO 21007KT 10SM CLR 11/07 A2946 RMK AO2 SLP976 T01110067
Loading
Personal Weather Stations






























Interactive Weather Map
Tropical Storm Tracking
New forecast layout! Learn more

10-Day Weather Forecast

Advertisements
Track Severe Weather on mobile